^^
Station Historical Data
Daily Summary for January 24, 2018 Units:  English    Metric   Both
« Previous Day
Next Day »
Daily Weekly Monthly Yearly Custom
  High: Low: Average:
Temperature: TemperatureC °F -3.6 °F -1.1 °F
Dew Point: DewpointC °F -4.5 °F -2 °F
Humidity: Humidity% 93% 93%
Wind Speed: WindSpeedKMHmph 0.0mph 3.2mph
Wind Gust: WindSpeedGustKMHmph - -
Wind- - South
Pressure: PressurehPa in 998.5 in -
Precipitation: 11.7 in    
Historical Graphs
 
 
Tabular Data for January 24, 2018
Time Temperature Dew Point Pressure Wind Wind Speed Wind Gust Humidity Rainfall Rate (Hourly) solar Conditions
TemperatureC °F DewpointC °F PressurehPa in Calm     Humidity% HourlyPrecipMM in SoftwareType W/m2 Conditions
00:04 -1.1 °F -1.9 °F 1016.8 in SSW 0.2 mph 13.0 mph 94% 0.3 in WeatherDisplay:10.37 W/m2 RA
00:09 -1.1 °F -1.9 °F 1016.8 in ESE 0.5 mph 3.7 mph 94% 0.3 in WeatherDisplay:10.37 W/m2 RA
00:14 -1.1 °F -1.9 °F 1016.8 in WNW 1.6 mph 5.6 mph 94% 0.3 in WeatherDisplay:10.37 W/m2 FEW
00:19 -1.1 °F -1.9 °F 1016.8 in SSE 4.8 mph 11.1 mph 94% 0.3 in WeatherDisplay:10.37 W/m2 FEW
00:24 -1.1 °F -1.9 °F 1016.5 in SSE 0.8 mph 3.7 mph 94% 0.3 in WeatherDisplay:10.37 W/m2 FEW
00:29 -1.1 °F -1.9 °F 1016.5 in East 2.4 mph 11.1 mph 94% 0.3 in WeatherDisplay:10.37 W/m2 FEW
00:34 -1.1 °F -1.9 °F 1016.5 in Calm     94% 0.3 in WeatherDisplay:10.37 W/m2 FEW
00:40 -1.0 °F -1.8 °F 1016.5 in SW 3.1 mph 7.4 mph 94% 0.3 in WeatherDisplay:10.37 W/m2 FEW
00:45 -1.0 °F -1.8 °F 1016.5 in SE 4.2 mph 8.0 mph 94% 0.3 in WeatherDisplay:10.37 W/m2 FEW
00:50 -1.0 °F -1.8 °F 1016.1 in WSW 1.6 mph 13.0 mph 94% 0.3 in WeatherDisplay:10.37 W/m2 FEW
01:00 -0.9 °F -1.8 °F 1016.1 in ESE 2.6 mph 3.7 mph 94% 0.3 in WeatherDisplay:10.37 W/m2 RA
01:05 -0.9 °F -1.8 °F 1016.1 in SSW 1.0 mph 5.6 mph 94% 0.3 in WeatherDisplay:10.37 W/m2 FEW
01:15 -1.0 °F -1.8 °F 1016.1 in SSE 1.6 mph 6.4 mph 94% 0.3 in WeatherDisplay:10.37 W/m2 FEW
01:25 -1.0 °F -1.8 °F 1016.1 in Calm     94% 0.3 in WeatherDisplay:10.37 W/m2 FEW
01:30 -1.1 °F -1.9 °F 1015.8 in SSW 4.8 mph 9.3 mph 94% 0.3 in WeatherDisplay:10.37 W/m2 FEW
01:35 -1.1 °F -1.9 °F 1015.8 in Calm     94% 0.3 in WeatherDisplay:10.37 W/m2 FEW
01:40 -1.1 °F -1.9 °F 1015.8 in South 2.3 mph 9.3 mph 94% 0.3 in WeatherDisplay:10.37 W/m2 FEW
01:45 -1.1 °F -2.1 °F 1015.8 in SW 3.4 mph 20.4 mph 93% 0.3 in WeatherDisplay:10.37 W/m2 FEW
01:50 -1.1 °F -2.1 °F 1015.8 in South 4.2 mph 11.1 mph 93% 0.5 in WeatherDisplay:10.37 W/m2 RA
01:55 -1.1 °F -2.1 °F 1015.5 in NW 3.9 mph 11.1 mph 93% 0.3 in WeatherDisplay:10.37 W/m2 RA
02:00 -1.1 °F -2.1 °F 1015.5 in SW 1.1 mph 5.6 mph 93% 0.3 in WeatherDisplay:10.37 W/m2 FEW
02:05 -1.1 °F -2.1 °F 1015.5 in West 2.1 mph 13.0 mph 93% 0.3 in WeatherDisplay:10.37 W/m2 FEW
02:10 -1.2 °F -2.2 °F 1015.5 in SSW 2.3 mph 14.8 mph 93% 0.3 in WeatherDisplay:10.37 W/m2 FEW
02:20 -1.2 °F -2.2 °F 1015.1 in SSW 1.1 mph 5.6 mph 93% 0.5 in WeatherDisplay:10.37 W/m2 RA
02:25 -1.2 °F -2.2 °F 1015.1 in North 4.2 mph 11.1 mph 93% 0.5 in WeatherDisplay:10.37 W/m2 FEW
02:30 -1.2 °F -2.2 °F 1015.1 in SSW 0.6 mph 5.6 mph 93% 0.5 in WeatherDisplay:10.37 W/m2 FEW
02:35 -1.2 °F -2.0 °F 1014.8 in SE 3.7 mph 5.6 mph 94% 0.5 in WeatherDisplay:10.37 W/m2 FEW
02:40 -1.2 °F -2.0 °F 1014.8 in South 3.2 mph 5.6 mph 94% 0.5 in WeatherDisplay:10.37 W/m2 FEW
02:45 -1.2 °F -2.1 °F 1014.8 in South 1.3 mph 14.8 mph 94% 0.5 in WeatherDisplay:10.37 W/m2 RA
02:50 -1.2 °F -2.1 °F 1014.8 in SSE 5.8 mph 13.0 mph 94% 0.5 in WeatherDisplay:10.37 W/m2 RA
02:55 -1.3 °F -2.1 °F 1014.8 in South 0.3 mph 3.7 mph 94% 0.5 in WeatherDisplay:10.37 W/m2 FEW
03:00 -1.3 °F -2.3 °F 1014.4 in SW 2.7 mph 5.6 mph 93% 0.5 in WeatherDisplay:10.37 W/m2 FEW
03:05 -1.4 °F -2.4 °F 1014.4 in ESE 9.0 mph 18.5 mph 93% 0.5 in WeatherDisplay:10.37 W/m2 FEW
03:10 -1.4 °F -2.2 °F 1014.4 in SSW 1.6 mph 11.1 mph 94% 0.5 in WeatherDisplay:10.37 W/m2 FEW
03:15 -1.4 °F -2.3 °F 1014.4 in SSW 3.7 mph 24.1 mph 94% 0.5 in WeatherDisplay:10.37 W/m2 FEW
03:20 -1.5 °F -2.3 °F 1014.1 in SSW 8.4 mph 18.5 mph 94% 0.5 in WeatherDisplay:10.37 W/m2 RA
03:25 -1.6 °F -2.4 °F 1014.1 in South 0.8 mph 14.5 mph 94% 0.5 in WeatherDisplay:10.37 W/m2 RA
03:30 -1.6 °F -2.4 °F 1014.1 in Calm   9.3 mph 94% 0.5 in WeatherDisplay:10.37 W/m2 FEW
03:35 -1.7 °F -2.7 °F 1014.1 in SE 2.6 mph 7.4 mph 93% 0.5 in WeatherDisplay:10.37 W/m2 FEW
03:40 -1.8 °F -2.8 °F 1013.8 in SE 4.7 mph 14.8 mph 93% 0.5 in WeatherDisplay:10.37 W/m2 FEW
03:55 -1.8 °F -2.8 °F 1013.8 in South 1.1 mph 5.6 mph 93% 0.3 in WeatherDisplay:10.37 W/m2 FEW
04:00 -1.9 °F -2.9 °F 1013.4 in SSE 1.0 mph 11.1 mph 93% 0.3 in WeatherDisplay:10.37 W/m2 FEW
04:05 -1.9 °F -2.9 °F 1013.4 in SSW 3.2 mph 18.5 mph 93% 0.3 in WeatherDisplay:10.37 W/m2 FEW
04:10 -1.9 °F -2.9 °F 1013.4 in SW 3.2 mph 11.1 mph 93% 0.3 in WeatherDisplay:10.37 W/m2 FEW
04:15 -1.9 °F -2.9 °F 1013.4 in Calm   5.6 mph 93% 0.3 in WeatherDisplay:10.37 W/m2 FEW
04:20 -2.0 °F -3.0 °F 1013.4 in SSE 7.2 mph 13.0 mph 93% 0.0 in WeatherDisplay:10.37 W/m2 FEW
04:25 -2.1 °F -3.1 °F 1013.1 in Calm     93% 0.0 in WeatherDisplay:10.37 W/m2 FEW
04:35 -2.1 °F -3.1 °F 1013.1 in Calm     93% 0.3 in WeatherDisplay:10.37 W/m2 RA
04:40 -2.1 °F -3.1 °F 1013.1 in SSE 1.4 mph 5.6 mph 93% 0.3 in WeatherDisplay:10.37 W/m2 FEW
04:45 -2.1 °F -3.1 °F 1012.8 in Calm     93% 0.3 in WeatherDisplay:10.37 W/m2 FEW
04:55 -2.2 °F -3.2 °F 1012.8 in SSW 1.9 mph 6.4 mph 93% 0.3 in WeatherDisplay:10.37 W/m2 FEW
05:00 -2.2 °F -3.2 °F 1012.8 in SSW 10.8 mph 10.8 mph 93% 0.5 in WeatherDisplay:10.37 W/m2 RA
05:05 -2.2 °F -3.2 °F 1012.8 in SSE 6.3 mph 18.5 mph 93% 0.5 in WeatherDisplay:10.37 W/m2 RA
05:15 -2.3 °F -3.3 °F 1012.4 in SE 0.8 mph 5.6 mph 93% 0.5 in WeatherDisplay:10.37 W/m2 FEW
05:20 -2.4 °F -3.4 °F 1012.4 in SSW 6.0 mph 6.0 mph 93% 0.5 in WeatherDisplay:10.37 W/m2 RA
05:25 -2.5 °F -3.5 °F 1012.4 in SSW 0.5 mph 3.7 mph 93% 0.5 in WeatherDisplay:10.37 W/m2 FEW
05:30 -2.6 °F -3.6 °F 1012.1 in SSE 4.7 mph 20.4 mph 93% 0.5 in WeatherDisplay:10.37 W/m2 FEW
05:35 -2.6 °F -3.6 °F 1012.1 in SW 5.5 mph 11.1 mph 93% 0.5 in WeatherDisplay:10.37 W/m2 FEW
05:40 -2.7 °F -3.7 °F 1012.1 in SE 3.2 mph 17.7 mph 93% 0.5 in WeatherDisplay:10.37 W/m2 RA
05:45 -2.7 °F -3.7 °F 1012.1 in SSE 5.6 mph 18.5 mph 93% 0.5 in WeatherDisplay:10.37 W/m2 RA
05:50 -2.7 °F -3.7 °F 1011.7 in SE 5.8 mph 16.7 mph 93% 0.5 in WeatherDisplay:10.37 W/m2 FEW
05:55 -2.8 °F -3.8 °F 1011.7 in SE 4.0 mph 9.3 mph 93% 0.5 in WeatherDisplay:10.37 W/m2 FEW
06:00 -2.8 °F -3.8 °F 1011.4 in SSE 6.0 mph 13.0 mph 93% 0.5 in WeatherDisplay:10.37 W/m2 FEW
06:05 -2.9 °F -3.9 °F 1011.4 in SSW 3.7 mph 11.1 mph 93% 0.5 in WeatherDisplay:10.37 W/m2 RA
06:10 -2.9 °F -3.9 °F 1011.4 in South 5.5 mph 16.7 mph 93% 0.5 in WeatherDisplay:10.37 W/m2 RA
06:20 -3.0 °F -4.0 °F 1011.4 in SSW 3.1 mph 16.7 mph 93% 0.5 in WeatherDisplay:10.37 W/m2 FEW
06:25 -2.9 °F -3.9 °F 1011.1 in SSE 1.8 mph 13.0 mph 93% 0.5 in WeatherDisplay:10.37 W/m2 RA
06:30 -2.9 °F -3.9 °F 1011.1 in SE 3.4 mph 16.7 mph 93% 0.5 in WeatherDisplay:10.37 W/m2 RA
06:35 -3.0 °F -4.0 °F 1010.7 in SW 2.9 mph 13.0 mph 93% 0.5 in WeatherDisplay:10.37 W/m2 FEW
06:40 -3.0 °F -4.0 °F 1010.7 in South 3.4 mph 3.7 mph 93% 0.5 in WeatherDisplay:10.37 W/m2 FEW
06:50 -3.1 °F -4.0 °F 1010.4 in SSE 6.8 mph 16.7 mph 93% 0.5 in WeatherDisplay:10.37 W/m2 RA
07:00 -3.1 °F -4.0 °F 1010.4 in South 5.5 mph 14.8 mph 93% 0.8 in WeatherDisplay:10.37 W/m2 RA
07:05 -3.1 °F -4.0 °F 1010.4 in SE 4.3 mph 7.4 mph 93% 0.5 in WeatherDisplay:10.37 W/m2 RA
07:10 -3.1 °F -4.0 °F 1010.0 in SSE 1.6 mph 5.6 mph 93% 0.8 in WeatherDisplay:10.37 W/m2 RA
07:15 -3.1 °F -4.0 °F 1010.0 in South 2.4 mph 11.1 mph 93% 0.8 in WeatherDisplay:10.37 W/m2 RA
07:20 -3.1 °F -4.0 °F 1010.0 in South 0.3 mph 11.1 mph 93% 0.8 in WeatherDisplay:10.37 W/m2 FEW
07:25 -3.1 °F -4.1 °F 1010.0 in SW 4.2 mph 9.3 mph 93% 0.5 in WeatherDisplay:10.37 W/m2 FEW
07:30 -3.1 °F -4.1 °F 1009.7 in SSE 6.9 mph 11.3 mph 93% 0.8 in WeatherDisplay:10.37 W/m2 RA
07:35 -3.1 °F -4.1 °F 1009.7 in SE 1.6 mph 7.4 mph 93% 0.8 in WeatherDisplay:10.37 W/m2 RA
07:40 -3.2 °F -4.0 °F 1009.4 in SSE 2.1 mph 7.4 mph 94% 0.8 in WeatherDisplay:10.37 W/m2 FEW
07:45 -3.2 °F -4.0 °F 1009.4 in SSE 3.2 mph 14.8 mph 94% 0.5 in WeatherDisplay:10.37 W/m2 FEW
07:50 -3.2 °F -4.1 °F 1009.4 in South 2.9 mph 9.3 mph 94% 0.8 in WeatherDisplay:10.37 W/m2 RA
07:55 -3.3 °F -4.1 °F 1009.0 in South 0.3 mph 3.7 mph 94% 0.8 in WeatherDisplay:10.37 W/m2 RA
08:00 -3.3 °F -4.1 °F 1009.0 in SSE 4.2 mph 16.7 mph 94% 0.5 in WeatherDisplay:10.37 W/m2 FEW
08:05 -3.3 °F -4.3 °F 1009.0 in Calm   1.9 mph 93% 0.5 in WeatherDisplay:10.37 W/m2 FEW
08:10 -3.3 °F -4.3 °F 1009.0 in South 2.3 mph 13.0 mph 93% 0.5 in WeatherDisplay:10.37 W/m2 RA
08:15 -3.3 °F -4.2 °F 1008.7 in SE 4.7 mph 9.7 mph 94% 0.5 in WeatherDisplay:10.37 W/m2 RA
08:30 -3.4 °F -4.3 °F 1008.4 in SSE 4.5 mph 5.6 mph 94% 0.5 in WeatherDisplay:10.37 W/m2 RA
08:35 -3.4 °F -4.3 °F 1008.4 in SSE 3.2 mph 18.5 mph 94% 0.5 in WeatherDisplay:10.37 W/m2 RA
08:45 -3.5 °F -4.3 °F 1008.0 in SE 4.3 mph 11.1 mph 94% 0.5 in WeatherDisplay:10.37 W/m2 FEW
08:50 -3.5 °F -4.3 °F 1008.0 in SE 2.3 mph 5.6 mph 94% 0.5 in WeatherDisplay:10.37 W/m2 FEW
08:55 -3.5 °F -4.3 °F 1008.0 in SE 2.1 mph 11.1 mph 94% 0.5 in WeatherDisplay:10.37 W/m2 FEW
09:00 -3.5 °F -4.3 °F 1008.0 in SSE 6.4 mph 22.2 mph 94% 0.5 in WeatherDisplay:10.37 W/m2 RA
09:05 -3.5 °F -4.3 °F 1008.0 in SSE 2.9 mph 11.1 mph 94% 0.5 in WeatherDisplay:10.37 W/m2 RA
09:10 -3.5 °F -4.3 °F 1008.0 in SW 4.7 mph 9.3 mph 94% 0.5 in WeatherDisplay:10.37 W/m2 FEW
09:15 -3.6 °F -4.4 °F 1007.7 in SSE 7.2 mph 16.7 mph 94% 0.5 in WeatherDisplay:10.37 W/m2 FEW
09:20 -3.6 °F -4.5 °F 1007.7 in SSE 4.8 mph 9.3 mph 93% 0.5 in WeatherDisplay:10.37 W/m2 FEW
09:25 -3.6 °F -4.5 °F 1007.7 in South 4.5 mph 18.5 mph 93% 0.5 in WeatherDisplay:10.37 W/m2 FEW
09:30 -3.6 °F -4.5 °F 1007.3 in South 8.7 mph 13.0 mph 93% 0.5 in WeatherDisplay:10.37 W/m2 RA
09:35 -3.6 °F -4.5 °F 1007.3 in South 6.6 mph 13.0 mph 93% 0.5 in WeatherDisplay:10.37 W/m2 RA
09:40 -3.5 °F -4.3 °F 1007.3 in ESE 6.3 mph 13.0 mph 94% 0.5 in WeatherDisplay:10.37 W/m2 FEW
09:55 -3.4 °F -4.3 °F 1007.0 in SSW 3.7 mph 7.4 mph 94% 0.8 in WeatherDisplay:10.37 W/m2 RA
10:00 -3.4 °F -4.3 °F 1007.0 in East 6.6 mph 11.1 mph 94% 0.8 in WeatherDisplay:10.37 W/m2 RA
10:05 -3.4 °F -4.3 °F 1006.7 in South 2.1 mph 6.4 mph 94% 0.8 in WeatherDisplay:10.37 W/m2 RA
10:10 -3.4 °F -4.3 °F 1006.7 in SSE 7.1 mph 18.5 mph 94% 1.0 in WeatherDisplay:10.37 W/m2 RA
10:20 -3.4 °F -4.3 °F 1006.3 in SE 4.2 mph 7.4 mph 94% 1.3 in WeatherDisplay:10.37 W/m2 RA
10:25 -3.4 °F -4.2 °F 1006.3 in SSW 2.3 mph 14.8 mph 94% 1.3 in WeatherDisplay:10.37 W/m2 RA
10:30 -3.3 °F -4.2 °F 1006.3 in SSE 3.9 mph 18.5 mph 94% 1.3 in WeatherDisplay:10.37 W/m2 RA
10:35 -3.3 °F -4.2 °F 1006.0 in East 4.3 mph 11.3 mph 94% 1.5 in WeatherDisplay:10.37 W/m2 RA
10:40 -3.3 °F -4.2 °F 1006.0 in SSW 4.0 mph 14.8 mph 94% 1.5 in WeatherDisplay:10.37 W/m2 RA
10:45 -3.3 °F -4.2 °F 1006.0 in SSE 4.0 mph 16.1 mph 94% 1.5 in WeatherDisplay:10.37 W/m2 RA
10:50 -3.3 °F -4.2 °F 1005.6 in SSE 2.6 mph 5.6 mph 94% 1.5 in WeatherDisplay:10.37 W/m2 RA
10:55 -3.3 °F -4.1 °F 1005.6 in SSE 1.6 mph   94% 1.5 in WeatherDisplay:10.37 W/m2 RA
11:00 -3.2 °F -4.1 °F 1005.6 in South 4.3 mph 13.0 mph 94% 1.5 in WeatherDisplay:10.37 W/m2 RA
11:05 -3.2 °F -4.1 °F 1005.6 in WSW 3.5 mph 5.6 mph 94% 1.5 in WeatherDisplay:10.37 W/m2 RA
11:10 -3.2 °F -4.1 °F 1005.6 in SSE 1.3 mph 13.0 mph 94% 1.5 in WeatherDisplay:10.37 W/m2 RA
11:15 -3.2 °F -4.1 °F 1005.6 in South 5.6 mph 9.3 mph 94% 1.5 in WeatherDisplay:10.37 W/m2 RA
11:25 -3.2 °F -4.0 °F 1005.6 in SE 3.1 mph 5.6 mph 94% 1.3 in WeatherDisplay:10.37 W/m2 FEW
11:30 -3.2 °F -4.0 °F 1005.0 in South 6.6 mph 14.8 mph 94% 1.3 in WeatherDisplay:10.37 W/m2 FEW
11:35 -3.2 °F -4.0 °F 1005.3 in SE 6.1 mph 19.3 mph 94% 1.0 in WeatherDisplay:10.37 W/m2 FEW
11:40 -3.1 °F -3.9 °F 1005.0 in SSE 3.9 mph 13.0 mph 94% 0.8 in WeatherDisplay:10.37 W/m2 FEW
11:45 -3.1 °F -3.9 °F 1005.0 in SSE 4.3 mph 5.6 mph 94% 0.8 in WeatherDisplay:10.37 W/m2 FEW
11:50 -3.1 °F -3.9 °F 1005.0 in South 5.0 mph 14.8 mph 94% 0.8 in WeatherDisplay:10.37 W/m2 RA
11:55 -3.0 °F -3.8 °F 1005.0 in Calm     94% 0.8 in WeatherDisplay:10.37 W/m2 RA
12:00 -3.0 °F -3.8 °F 1004.6 in SSE 8.2 mph 18.5 mph 94% 1.0 in WeatherDisplay:10.37 W/m2 RA
12:05 -3.0 °F -3.8 °F 1004.6 in South 2.3 mph 7.4 mph 94% 1.0 in WeatherDisplay:10.37 W/m2 RA
12:10 -3.0 °F -3.8 °F 1004.6 in SSE 5.1 mph 16.7 mph 94% 1.0 in WeatherDisplay:10.37 W/m2 RA
12:15 -2.9 °F -3.8 °F 1004.6 in SE 5.1 mph 7.4 mph 94% 1.0 in WeatherDisplay:10.37 W/m2 RA
12:20 -2.9 °F -3.8 °F 1004.3 in SE 2.3 mph 6.4 mph 94% 1.0 in WeatherDisplay:10.37 W/m2 RA
12:25 -2.9 °F -3.8 °F 1004.3 in SE 0.8 mph 13.0 mph 94% 1.3 in WeatherDisplay:10.37 W/m2 RA
12:30 -2.9 °F -3.7 °F 1004.3 in SSE 2.6 mph 18.5 mph 94% 1.3 in WeatherDisplay:10.37 W/m2 RA
12:35 -2.9 °F -3.7 °F 1004.3 in South 7.7 mph 9.3 mph 94% 1.5 in WeatherDisplay:10.37 W/m2 RA
12:40 -2.9 °F -3.8 °F 1004.3 in South 3.4 mph 14.8 mph 94% 1.5 in WeatherDisplay:10.37 W/m2 RA
12:45 -2.9 °F -3.7 °F 1003.9 in ESE 7.1 mph 14.8 mph 94% 1.5 in WeatherDisplay:10.37 W/m2 RA
12:50 -2.9 °F -3.7 °F 1003.9 in South 2.4 mph 5.6 mph 94% 1.5 in WeatherDisplay:10.37 W/m2 RA
12:55 -2.9 °F -3.7 °F 1003.9 in SSW 3.4 mph 14.5 mph 94% 1.5 in WeatherDisplay:10.37 W/m2 RA
13:00 -2.9 °F -3.7 °F 1003.9 in ENE 6.6 mph 16.7 mph 94% 1.5 in WeatherDisplay:10.37 W/m2 RA
13:05 -2.8 °F -3.7 °F 1003.9 in South 9.3 mph 18.5 mph 94% 1.5 in WeatherDisplay:10.37 W/m2 RA
13:10 -2.8 °F -3.7 °F 1003.9 in SSE 4.3 mph 4.8 mph 94% 1.5 in WeatherDisplay:10.37 W/m2 RA
13:15 -2.8 °F -3.6 °F 1003.6 in ESE 3.4 mph 14.8 mph 94% 1.5 in WeatherDisplay:10.37 W/m2 RA
13:20 -2.7 °F -3.6 °F 1003.6 in ESE 6.3 mph 18.5 mph 94% 1.5 in WeatherDisplay:10.37 W/m2 RA
13:25 -2.7 °F -3.6 °F 1003.6 in SE 4.0 mph 13.0 mph 94% 1.5 in WeatherDisplay:10.37 W/m2 RA
13:30 -2.7 °F -3.6 °F 1003.6 in SSE 4.3 mph 9.7 mph 94% 1.5 in WeatherDisplay:10.37 W/m2 RA
13:35 -2.7 °F -3.6 °F 1003.3 in SE 6.0 mph 14.8 mph 94% 1.5 in WeatherDisplay:10.37 W/m2 FEW
13:40 -2.7 °F -3.6 °F 1003.3 in SE 5.0 mph 13.0 mph 94% 1.5 in WeatherDisplay:10.37 W/m2 RA
13:45 -2.7 °F -3.5 °F 1003.3 in SSE 2.6 mph 14.5 mph 94% 1.5 in WeatherDisplay:10.37 W/m2 RA
13:50 -2.7 °F -3.5 °F 1003.3 in South 3.9 mph 11.1 mph 94% 1.5 in WeatherDisplay:10.37 W/m2 RA
13:55 -2.7 °F -3.5 °F 1002.9 in SW 1.9 mph 6.4 mph 94% 1.5 in WeatherDisplay:10.37 W/m2 RA
14:00 -2.6 °F -3.4 °F 1003.3 in SSW 1.9 mph 5.6 mph 94% 1.5 in WeatherDisplay:10.37 W/m2 RA
14:05 -2.6 °F -3.4 °F 1002.9 in SSW 5.0 mph 11.1 mph 94% 1.5 in WeatherDisplay:10.37 W/m2 RA
14:10 -2.6 °F -3.4 °F 1002.9 in South 4.7 mph 4.8 mph 94% 1.5 in WeatherDisplay:10.37 W/m2 RA
14:15 -2.6 °F -3.4 °F 1002.6 in SSE 8.0 mph 8.0 mph 94% 1.5 in WeatherDisplay:10.37 W/m2 RA
14:20 -2.5 °F -3.3 °F 1002.6 in SSE 0.3 mph 18.5 mph 94% 1.3 in WeatherDisplay:10.37 W/m2 RA
14:25 -2.4 °F -3.3 °F 1002.6 in SSE 6.6 mph 13.0 mph 94% 1.3 in WeatherDisplay:10.37 W/m2 RA
14:30 -2.4 °F -3.2 °F 1002.3 in SSE 3.5 mph 11.3 mph 94% 1.3 in WeatherDisplay:10.37 W/m2 RA
14:35 -2.4 °F -3.2 °F 1002.3 in SSW 2.1 mph 5.6 mph 94% 1.3 in WeatherDisplay:10.37 W/m2 RA
14:40 -2.3 °F -3.2 °F 1002.3 in NE 0.5 mph 3.7 mph 94% 1.3 in WeatherDisplay:10.37 W/m2 RA
14:45 -2.3 °F -3.2 °F 1002.3 in SSE 8.5 mph 13.0 mph 94% 1.0 in WeatherDisplay:10.37 W/m2 RA
14:50 -2.3 °F -3.1 °F 1002.3 in South 5.6 mph 13.0 mph 94% 1.0 in WeatherDisplay:10.37 W/m2 FEW
14:55 -2.3 °F -3.1 °F 1001.9 in SSE 8.0 mph 16.7 mph 94% 1.0 in WeatherDisplay:10.37 W/m2 RA
15:00 -2.3 °F -3.1 °F 1001.9 in South 1.1 mph 16.7 mph 94% 1.0 in WeatherDisplay:10.37 W/m2 RA
15:05 -2.2 °F -3.0 °F 1001.9 in SSE 1.4 mph 7.4 mph 94% 1.0 in WeatherDisplay:10.37 W/m2 RA
15:10 -2.2 °F -3.0 °F 1001.9 in SSE 2.9 mph 9.3 mph 94% 1.0 in WeatherDisplay:10.37 W/m2 RA
15:15 -2.1 °F -2.9 °F 1001.9 in SE 5.6 mph 16.7 mph 94% 0.8 in WeatherDisplay:10.37 W/m2 FEW
15:20 -2.1 °F -2.9 °F 1001.9 in SE 1.4 mph 14.5 mph 94% 0.8 in WeatherDisplay:10.37 W/m2 FEW
15:25 -1.9 °F -2.8 °F 1001.9 in SE 4.3 mph 11.1 mph 94% 0.8 in WeatherDisplay:10.37 W/m2 FEW
15:30 -1.8 °F -2.7 °F 1001.9 in Calm   16.7 mph 94% 0.5 in WeatherDisplay:10.37 W/m2 FEW
15:40 -1.7 °F -2.5 °F 1001.9 in SSE 3.9 mph 11.1 mph 94% 0.5 in WeatherDisplay:10.37 W/m2 FEW
15:45 -1.6 °F -2.4 °F 1001.9 in SW 4.3 mph 13.0 mph 94% 0.5 in WeatherDisplay:10.37 W/m2 FEW
15:50 -1.4 °F -2.3 °F 1001.9 in SSE 3.1 mph 6.4 mph 94% 0.5 in WeatherDisplay:10.37 W/m2 FEW
15:55 -1.3 °F -2.2 °F 1001.9 in North 1.3 mph 7.4 mph 94% 0.3 in WeatherDisplay:10.37 W/m2 FEW
16:00 -1.3 °F -2.1 °F 1001.9 in SSE 3.5 mph 7.4 mph 94% 0.3 in WeatherDisplay:10.37 W/m2 FEW
16:05 -1.1 °F -2.1 °F 1001.9 in SSE 5.1 mph 7.4 mph 93% 0.0 in WeatherDisplay:10.37 W/m2 FEW
16:10 -1.1 °F -1.9 °F 1001.9 in SSE 3.2 mph 11.3 mph 94% 0.0 in WeatherDisplay:10.37 W/m2 FEW
16:15 -0.9 °F -1.9 °F 1001.9 in NNE 1.4 mph 7.4 mph 93% 0.0 in WeatherDisplay:10.37 W/m2 FEW
16:20 -0.8 °F -1.8 °F 1001.9 in South 5.0 mph 9.3 mph 93% 0.0 in WeatherDisplay:10.37 W/m2 FEW
16:25 -0.7 °F -1.7 °F 1001.9 in North 0.6 mph 3.7 mph 93% 0.0 in WeatherDisplay:10.37 W/m2 FEW
16:30 -0.4 °F -1.4 °F 1001.9 in South 5.1 mph 5.6 mph 93% 0.3 in WeatherDisplay:10.37 W/m2 RA
16:35 -0.3 °F -1.3 °F 1001.9 in South 1.0 mph 3.7 mph 93% 0.3 in WeatherDisplay:10.37 W/m2 RA
16:40 -0.1 °F -1.1 °F 1001.9 in SW 1.9 mph 9.3 mph 93% 0.3 in WeatherDisplay:10.37 W/m2 FEW
16:45 0.1 °F -0.9 °F 1001.9 in South 1.4 mph 5.6 mph 93% 0.3 in WeatherDisplay:10.37 W/m2 FEW
16:50 0.2 °F -0.8 °F 1001.9 in SE 3.2 mph 9.3 mph 93% 0.3 in WeatherDisplay:10.37 W/m2 FEW
16:55 0.2 °F -0.8 °F 1001.6 in SSW 1.4 mph 5.6 mph 93% 0.3 in WeatherDisplay:10.37 W/m2 FEW
17:00 0.2 °F -0.8 °F 1001.6 in Calm     93% 0.3 in WeatherDisplay:10.37 W/m2 FEW
17:05 0.3 °F -0.7 °F 1001.6 in Calm     93% 0.3 in WeatherDisplay:10.37 W/m2 FEW
17:10 0.3 °F -0.7 °F 1001.6 in SSE 0.5 mph 5.6 mph 93% 0.3 in WeatherDisplay:10.37 W/m2 FEW
17:20 0.3 °F -0.7 °F 1001.6 in ESE 2.3 mph 4.8 mph 93% 0.3 in WeatherDisplay:10.37 W/m2 FEW
17:25 0.4 °F -0.6 °F 1001.6 in SSE 0.3 mph 3.7 mph 93% 0.3 in WeatherDisplay:10.37 W/m2 FEW
17:30 0.4 °F -0.6 °F 1001.6 in South 1.6 mph 3.7 mph 93% 0.0 in WeatherDisplay:10.37 W/m2 FEW
17:35 0.4 °F -0.6 °F 1001.6 in Calm     93% 0.0 in WeatherDisplay:10.37 W/m2 FEW
17:40 0.4 °F -0.6 °F 1001.6 in Calm     93% 0.0 in WeatherDisplay:10.37 W/m2 FEW
17:45 0.4 °F -0.6 °F 1001.6 in SE 1.4 mph   93% 0.0 in WeatherDisplay:10.37 W/m2 FEW
17:50 0.4 °F -0.6 °F 1001.6 in Calm     93% 0.0 in WeatherDisplay:10.37 W/m2 FEW
17:55 0.5 °F -0.5 °F 1001.6 in Calm   5.6 mph 93% 0.0 in WeatherDisplay:10.37 W/m2 FEW
18:00 0.6 °F -0.4 °F 1001.6 in Calm   1.9 mph 93% 0.0 in WeatherDisplay:10.37 W/m2 FEW
18:10 0.6 °F -0.2 °F 1001.6 in Calm     94% 0.0 in WeatherDisplay:10.37 W/m2 FEW
18:15 0.6 °F -0.2 °F 1001.9 in Calm   1.6 mph 94% 0.0 in WeatherDisplay:10.37 W/m2 FEW
18:20 0.7 °F -0.1 °F 1001.6 in SSW 1.1 mph 5.6 mph 94% 0.0 in WeatherDisplay:10.37 W/m2 FEW
18:25 0.8 °F -0.1 °F 1001.9 in Calm     94% 0.0 in WeatherDisplay:10.37 W/m2 FEW
18:30 0.9 °F 0.1 °F 1001.6 in SW 4.7 mph 7.4 mph 94% 0.0 in WeatherDisplay:10.37 W/m2 FEW
18:35 1.0 °F 0.2 °F 1001.6 in SSW 1.6 mph 9.3 mph 94% 0.0 in WeatherDisplay:10.37 W/m2 FEW
18:40 1.1 °F 0.2 °F 1001.6 in South 0.2 mph 1.9 mph 94% 0.0 in WeatherDisplay:10.37 W/m2 FEW
18:45 1.1 °F 0.2 °F 1001.6 in Calm     94% 0.0 in WeatherDisplay:10.37 W/m2 FEW
18:50 1.0 °F 0.2 °F 1001.6 in SSW 1.8 mph   94% 0.0 in WeatherDisplay:10.37 W/m2 FEW
19:00 1.2 °F 0.3 °F 1001.6 in SSE 3.7 mph 5.6 mph 94% 0.0 in WeatherDisplay:10.37 W/m2 FEW
19:05 1.2 °F 0.3 °F 1001.6 in Calm     94% 0.0 in WeatherDisplay:10.37 W/m2 FEW
19:10 1.2 °F 0.3 °F 1001.6 in SSW 0.5 mph 3.7 mph 94% 0.0 in WeatherDisplay:10.37 W/m2 FEW
19:15 1.4 °F 0.6 °F 1001.6 in SW 1.3 mph 8.0 mph 94% 0.0 in WeatherDisplay:10.37 W/m2 FEW
19:20 1.5 °F 0.7 °F 1001.6 in South 3.2 mph 9.3 mph 94% 0.0 in WeatherDisplay:10.37 W/m2 FEW
19:25 1.7 °F 0.8 °F 1001.6 in Calm     94% 0.0 in WeatherDisplay:10.37 W/m2 FEW
19:30 1.7 °F 0.8 °F 1001.6 in South 1.3 mph 8.0 mph 94% 0.0 in WeatherDisplay:10.37 W/m2 FEW
19:35 1.6 °F 0.7 °F 1001.6 in SSE 1.9 mph 14.8 mph 94% 0.0 in WeatherDisplay:10.37 W/m2 FEW
19:40 1.7 °F 0.8 °F 1001.6 in Calm     94% 0.0 in WeatherDisplay:10.37 W/m2 FEW
19:45 1.7 °F 0.8 °F 1001.6 in Calm   3.7 mph 94% 0.0 in WeatherDisplay:10.37 W/m2 FEW
19:50 1.8 °F 0.9 °F 1001.6 in SSE 0.3 mph 18.5 mph 94% 0.0 in WeatherDisplay:10.37 W/m2 FEW
19:55 1.8 °F 0.9 °F 1001.6 in SSE 1.6 mph 1.9 mph 94% 0.0 in WeatherDisplay:10.37 W/m2 FEW
20:00 1.9 °F 1.1 °F 1001.2 in WSW 2.6 mph 13.0 mph 94% 0.0 in WeatherDisplay:10.37 W/m2 FEW
20:05 2.0 °F 1.1 °F 1001.6 in SSE 0.3 mph 3.7 mph 94% 0.0 in WeatherDisplay:10.37 W/m2 FEW
20:15 2.1 °F 1.2 °F 1001.6 in SW 0.6 mph 13.0 mph 94% 0.0 in WeatherDisplay:10.37 W/m2 FEW
20:20 1.9 °F 1.1 °F 1001.6 in SSE 1.9 mph 5.6 mph 94% 0.0 in WeatherDisplay:10.37 W/m2 FEW
20:25 2.0 °F 1.1 °F 1001.6 in WNW 0.2 mph 3.7 mph 94% 0.0 in WeatherDisplay:10.37 W/m2 FEW
20:30 2.1 °F 1.2 °F 1001.6 in South 2.3 mph 13.0 mph 94% 0.0 in WeatherDisplay:10.37 W/m2 FEW
20:35 2.2 °F 1.3 °F 1001.6 in South 4.0 mph 13.0 mph 94% 0.0 in WeatherDisplay:10.37 W/m2 FEW
20:40 2.2 °F 1.3 °F 1001.6 in NW 4.5 mph 9.3 mph 94% 0.0 in WeatherDisplay:10.37 W/m2 FEW
20:45 2.3 °F 1.4 °F 1001.6 in NNW 2.1 mph 14.8 mph 94% 0.0 in WeatherDisplay:10.37 W/m2 FEW
20:55 2.4 °F 1.5 °F 1001.2 in South 7.9 mph 18.5 mph 94% 0.0 in WeatherDisplay:10.37 W/m2 FEW
21:00 2.4 °F 1.6 °F 1001.2 in SSW 3.5 mph 7.4 mph 94% 0.0 in WeatherDisplay:10.37 W/m2 FEW
21:05 2.4 °F 1.6 °F 1001.2 in ESE 1.4 mph 5.6 mph 94% 0.0 in WeatherDisplay:10.37 W/m2 FEW
21:10 2.4 °F 1.6 °F 1001.2 in West 3.1 mph 9.3 mph 94% 0.0 in WeatherDisplay:10.37 W/m2 FEW
21:15 2.4 °F 1.6 °F 1001.2 in NNW 3.1 mph 9.3 mph 94% 0.0 in WeatherDisplay:10.37 W/m2 FEW
21:20 2.5 °F 1.8 °F 1001.2 in SE 3.2 mph 9.3 mph 95% 0.0 in WeatherDisplay:10.37 W/m2 FEW
21:25 2.4 °F 1.6 °F 1001.2 in SSE 4.7 mph 18.5 mph 94% 0.0 in WeatherDisplay:10.37 W/m2 FEW
21:30 2.5 °F 1.8 °F 1001.2 in SSW 6.1 mph 14.8 mph 95% 0.0 in WeatherDisplay:10.37 W/m2 FEW
21:35 2.6 °F 1.8 °F 1001.2 in SSW 2.4 mph 9.3 mph 95% 0.0 in WeatherDisplay:10.37 W/m2 FEW
21:40 2.5 °F 1.8 °F 1001.2 in SSW 1.4 mph 6.4 mph 95% 0.0 in WeatherDisplay:10.37 W/m2 FEW
21:45 2.6 °F 1.8 °F 1001.2 in SSW 4.5 mph 9.3 mph 95% 0.0 in WeatherDisplay:10.37 W/m2 FEW
21:50 2.6 °F 1.8 °F 1001.2 in SSW 2.4 mph 13.0 mph 95% 0.0 in WeatherDisplay:10.37 W/m2 FEW
21:55 2.6 °F 1.8 °F 1000.9 in WSW 4.7 mph 16.7 mph 95% 0.0 in WeatherDisplay:10.37 W/m2 FEW
22:05 2.6 °F 1.8 °F 1000.9 in South 0.3 mph 3.7 mph 95% 0.0 in WeatherDisplay:10.37 W/m2 FEW
22:10 2.6 °F 1.8 °F 1000.9 in South 3.2 mph 6.4 mph 95% 0.0 in WeatherDisplay:10.37 W/m2 FEW
22:15 2.6 °F 1.8 °F 1000.9 in SW 2.7 mph 16.1 mph 95% 0.0 in WeatherDisplay:10.37 W/m2 FEW
22:25 2.5 °F 1.8 °F 1000.9 in South 0.2 mph 9.3 mph 95% 0.0 in WeatherDisplay:10.37 W/m2 FEW
22:30 2.6 °F 1.8 °F 1000.9 in SW 4.7 mph 12.9 mph 95% 0.3 in WeatherDisplay:10.37 W/m2 RA
22:35 2.6 °F 1.9 °F 1000.6 in SSW 3.1 mph 13.0 mph 95% 0.3 in WeatherDisplay:10.37 W/m2 RA
22:45 2.5 °F 1.8 °F 999.9 in SSW 1.4 mph 16.7 mph 95% 0.5 in WeatherDisplay:10.37 W/m2 RA
22:50 2.4 °F 1.6 °F 999.5 in South 3.9 mph 11.3 mph 94% 0.5 in WeatherDisplay:10.37 W/m2 RA
22:55 2.4 °F 1.5 °F 999.9 in SSE 3.9 mph 11.1 mph 94% 0.5 in WeatherDisplay:10.37 W/m2 FEW
23:00 2.3 °F 1.4 °F 999.5 in South 2.9 mph 9.3 mph 94% 0.5 in WeatherDisplay:10.37 W/m2 FEW
23:05 2.3 °F 1.4 °F 999.9 in SSE 0.8 mph 7.4 mph 94% 0.5 in WeatherDisplay:10.37 W/m2 FEW
23:10 2.3 °F 1.4 °F 999.5 in South 6.3 mph 22.2 mph 94% 0.5 in WeatherDisplay:10.37 W/m2 FEW
23:15 2.3 °F 1.4 °F 999.5 in SSE 5.6 mph 20.4 mph 94% 0.5 in WeatherDisplay:10.37 W/m2 FEW
23:20 2.4 °F 1.5 °F 999.5 in SE 4.3 mph 11.3 mph 94% 0.5 in WeatherDisplay:10.37 W/m2 FEW
23:25 2.4 °F 1.5 °F 999.2 in ESE 13.2 mph 18.5 mph 94% 0.5 in WeatherDisplay:10.37 W/m2 FEW
23:30 2.4 °F 1.7 °F 998.9 in South 5.3 mph 18.5 mph 95% 0.3 in WeatherDisplay:10.37 W/m2 FEW
23:35 2.4 °F 1.5 °F 998.9 in SE 5.1 mph 24.1 mph 94% 0.3 in WeatherDisplay:10.37 W/m2 FEW
23:40 2.4 °F 1.5 °F 998.9 in South 2.1 mph 3.7 mph 94% 0.3 in WeatherDisplay:10.37 W/m2 FEW
23:45 2.4 °F 1.6 °F 998.9 in West 6.0 mph 18.5 mph 94% 0.0 in WeatherDisplay:10.37 W/m2 FEW
23:50 2.4 °F 1.6 °F 998.5 in SE 4.2 mph 20.4 mph 94% 0.0 in WeatherDisplay:10.37 W/m2 FEW
23:55 2.4 °F 1.6 °F 998.5 in SE 11.3 mph 20.9 mph 94% 0.0 in WeatherDisplay:10.37 W/m2 FEW
Tuulensuunkaari, Veikkola, Suomi
Compliments of Weather Underground - 2.5 mb